Addison, Vermont
Current Conditions -  °F | °C
As of 1:35 AM on Sunday 26 Oct 2014 (Local Time) from K6B0 Reporting Station
Broken Clouds Broken Clouds  
Wind Chill: 47°   Ceiling: 8000
Heat Index: 47°   Visibility: 10mi
Dew Point: 47°   Wind: 0mph
Humidity: 99%   Direction: NA
Pressure: 29.45"   Gusts: NA
Location:  44.0804°N, 73.3324°W
Report Text: K6B0 260535Z AUTO 00000KT 10SM SCT065 BKN080 09/09 A2945 RMK AO2 T00860085
Loading
Personal Weather Stations






























Interactive Weather Map
Tropical Storm Tracking
New forecast layout! Learn more

10-Day Weather Forecast

Advertisements
Track Severe Weather on mobile